Time;durP1;ratioP1;P1;durP2;ratioP2;P2;SDS_P1;SDS_P2;PMS_P1;PMS_P2;Temp;Humidity;BMP_temperature;BMP_pressure;BME280_temperature;BME280_humidity;BME280_pressure;Samples;Min_cycle;Max_cycle;Signal;HPM_P1;HPM_P2
2024/02/24 00:00:31;;;;;;;1.23;0.30;;;5.90;1.00;;;;;;5120744;27;20790;-60
2024/02/24 00:02:58;;;;;;;1.00;0.40;;;5.80;1.00;;;;;;5118881;28;20526;-60
2024/02/24 00:05:26;;;;;;;1.10;0.40;;;5.70;1.00;;;;;;5118930;27;20428;-59
2024/02/24 00:07:54;;;;;;;0.80;0.40;;;5.80;1.00;;;;;;5118241;27;20428;-59
2024/02/24 00:10:23;;;;;;;0.80;0.40;;;5.60;1.00;;;;;;5119591;27;20892;-60
2024/02/24 00:12:50;;;;;;;1.17;0.40;;;5.60;1.00;;;;;;5117988;27;20835;-59
2024/02/24 00:15:17;;;;;;;0.55;0.30;;;5.50;1.00;;;;;;5116835;27;20440;-58
2024/02/24 00:17:44;;;;;;;1.30;0.40;;;5.40;99.90;;;;;;5117903;27;20458;-60
2024/02/24 00:20:12;;;;;;;0.90;0.50;;;5.40;59.10;;;;;;5117452;27;20523;-59
2024/02/24 00:22:39;;;;;;;0.80;0.40;;;5.30;99.90;;;;;;5117364;28;20777;-60
2024/02/24 00:25:06;;;;;;;0.70;0.40;;;5.40;99.90;;;;;;5117944;28;20666;-59
2024/02/24 00:27:35;;;;;;;0.80;0.40;;;5.40;99.90;;;;;;5117169;28;20496;-60
2024/02/24 00:30:02;;;;;;;0.75;0.40;;;5.50;99.90;;;;;;5117576;28;20420;-59
2024/02/24 00:32:28;;;;;;;0.50;0.30;;;5.50;1.00;;;;;;5117101;28;20742;-60
2024/02/24 00:34:55;;;;;;;0.80;0.40;;;5.40;1.00;;;;;;5119008;28;20526;-60
2024/02/24 00:37:22;;;;;;;0.60;0.40;;;5.30;99.90;;;;;;5116790;28;20884;-59
2024/02/24 00:39:49;;;;;;;0.80;0.40;;;5.30;99.90;;;;;;5117996;28;20413;-60
2024/02/24 00:42:16;;;;;;;0.60;0.30;;;5.30;1.00;;;;;;5117636;28;20897;-59
2024/02/24 00:44:45;;;;;;;0.80;0.40;;;5.30;99.90;;;;;;5117738;28;20451;-60
2024/02/24 00:47:12;;;;;;;0.70;0.40;;;5.40;99.90;;;;;;5117787;28;20420;-60
2024/02/24 00:49:39;;;;;;;0.60;0.40;;;5.40;99.90;;;;;;5117763;28;20425;-60
2024/02/24 00:52:06;;;;;;;0.60;0.40;;;5.30;99.90;;;;;;5116740;27;20593;-60
2024/02/24 00:54:33;;;;;;;1.33;0.30;;;5.20;99.90;;;;;;5118107;28;20509;-60
2024/02/24 00:57:00;;;;;;;1.90;0.40;;;5.20;1.00;;;;;;5116774;27;20460;-60
2024/02/24 00:59:27;;;;;;;1.10;0.50;;;5.30;1.00;;;;;;5119789;27;20523;-59
2024/02/24 01:01:55;;;;;;;1.40;0.40;;;5.30;1.00;;;;;;5118914;27;20489;-60
2024/02/24 01:04:22;;;;;;;1.67;0.40;;;5.30;99.90;;;;;;5117696;28;20751;-60
2024/02/24 01:06:49;;;;;;;0.90;0.30;;;5.20;1.00;;;;;;5118083;28;20494;-59
2024/02/24 01:09:16;;;;;;;0.70;0.40;;;5.20;3.60;;;;;;5117602;28;20752;-60
2024/02/24 01:11:43;;;;;;;1.40;0.40;;;5.10;1.00;;;;;;5117295;28;20504;-59
2024/02/24 01:14:10;;;;;;;0.70;0.30;;;5.20;1.00;;;;;;5117572;28;20881;-60
2024/02/24 01:16:39;;;;;;;0.80;0.40;;;5.10;1.00;;;;;;5117976;28;20424;-60
2024/02/24 01:19:07;;;;;;;0.93;0.30;;;5.10;1.00;;;;;;5115042;28;20520;-59
2024/02/24 01:21:34;;;;;;;0.90;0.20;;;5.10;99.90;;;;;;5117579;28;20496;-59
2024/02/24 01:24:01;;;;;;;0.70;0.40;;;5.10;1.00;;;;;;5118034;28;20485;-59
2024/02/24 01:26:28;;;;;;;1.00;0.30;;;5.20;1.00;;;;;;5117937;28;20867;-59
2024/02/24 01:28:54;;;;;;;0.60;0.32;;;5.50;1.00;;;;;;5117655;28;20423;-58
2024/02/24 01:31:21;;;;;;;0.60;0.30;;;5.70;99.90;;;;;;5113244;28;20526;-59
2024/02/24 01:33:48;;;;;;;0.60;0.30;;;5.80;99.90;;;;;;5113543;28;20572;-59
2024/02/24 01:36:16;;;;;;;0.50;0.30;;;5.90;1.00;;;;;;5118226;28;20456;-59
2024/02/24 01:38:43;;;;;;;0.50;0.30;;;5.90;67.70;;;;;;5116954;28;20481;-59
2024/02/24 01:41:11;;;;;;;0.50;0.20;;;5.90;99.90;;;;;;5116543;28;20533;-59
2024/02/24 01:43:38;;;;;;;0.50;0.20;;;5.80;59.80;;;;;;5115458;28;20694;-60
2024/02/24 01:46:07;;;;;;;2.42;0.30;;;5.80;99.90;;;;;;5115224;28;20439;-59
2024/02/24 01:48:36;;;;;;;0.52;0.30;;;5.90;99.90;;;;;;5115230;28;20440;-59
2024/02/24 01:51:03;;;;;;;1.50;0.30;;;6.10;27.20;;;;;;5115806;28;20420;-60
2024/02/24 01:53:32;;;;;;;0.60;0.30;;;6.10;1.00;;;;;;5118423;27;20507;-59
2024/02/24 01:56:01;;;;;;;0.60;0.20;;;6.20;99.90;;;;;;5116544;28;20451;-60
2024/02/24 01:58:29;;;;;;;0.70;0.30;;;6.20;41.00;;;;;;5114070;28;20596;-59
2024/02/24 02:00:57;;;;;;;0.60;0.30;;;6.10;34.60;;;;;;5114998;28;20758;-59
2024/02/24 02:03:23;;;;;;;0.50;0.30;;;6.20;1.00;;;;;;5114717;28;20496;-59
2024/02/24 02:05:50;;;;;;;0.50;0.30;;;6.20;99.90;;;;;;5115835;28;20886;-59
2024/02/24 02:08:17;;;;;;;0.60;0.30;;;6.10;99.90;;;;;;5117062;28;20434;-59
2024/02/24 02:10:48;;;;;;;0.60;0.30;;;6.10;99.90;;;;;;5116245;28;20822;-59
2024/02/24 02:13:15;;;;;;;0.52;0.30;;;6.20;1.00;;;;;;5118798;27;20429;-59
2024/02/24 02:15:42;;;;;;;0.57;0.30;;;6.30;99.90;;;;;;5115838;28;20416;-60
2024/02/24 02:18:11;;;;;;;0.50;0.30;;;6.30;1.00;;;;;;5118146;27;20825;-60
2024/02/24 02:20:37;;;;;;;1.80;0.30;;;6.30;1.00;;;;;;5114133;28;20463;-60
2024/02/24 02:23:06;;;;;;;0.50;0.30;;;6.30;1.00;;;;;;5116591;27;20480;-60
2024/02/24 02:25:33;;;;;;;0.90;0.30;;;6.20;49.70;;;;;;5114380;28;20519;-60
2024/02/24 02:28:00;;;;;;;1.13;0.30;;;6.00;1.00;;;;;;5114171;28;20408;-60
2024/02/24 02:30:27;;;;;;;0.70;0.20;;;5.90;99.90;;;;;;5114966;28;20880;-60
2024/02/24 02:32:54;;;;;;;0.70;0.30;;;5.90;1.00;;;;;;5114630;28;20434;-60
2024/02/24 02:35:21;;;;;;;0.50;0.30;;;5.80;1.00;;;;;;5114781;28;20511;-60
2024/02/24 02:37:48;;;;;;;0.47;0.28;;;5.70;1.00;;;;;;5115154;28;20420;-59
2024/02/24 02:40:17;;;;;;;0.50;0.20;;;5.70;99.90;;;;;;5115028;28;20512;-60
2024/02/24 02:42:44;;;;;;;0.40;0.20;;;5.70;99.90;;;;;;5115891;28;20778;-60
2024/02/24 02:45:10;;;;;;;0.40;0.20;;;5.70;99.90;;;;;;5118025;27;20782;-60
2024/02/24 02:47:38;;;;;;;1.38;0.25;;;5.70;57.70;;;;;;5110214;28;20515;-60
2024/02/24 02:50:05;;;;;;;1.07;0.30;;;5.60;1.00;;;;;;5116041;28;20515;-60
2024/02/24 02:52:32;;;;;;;1.00;0.20;;;5.60;99.90;;;;;;5115508;28;20520;-60
2024/02/24 02:54:59;;;;;;;0.50;0.20;;;5.60;1.00;;;;;;5115236;28;20473;-60
2024/02/24 02:57:27;;;;;;;0.60;0.20;;;5.60;2.20;;;;;;5115645;28;20451;-60
2024/02/24 02:59:54;;;;;;;0.40;0.20;;;5.50;99.90;;;;;;5115845;28;20424;-58
2024/02/24 03:02:21;;;;;;;0.40;0.20;;;5.50;99.90;;;;;;5115662;28;20519;-59
2024/02/24 03:04:48;;;;;;;0.50;0.20;;;5.50;99.90;;;;;;5115585;28;20508;-60
2024/02/24 03:07:14;;;;;;;0.40;0.10;;;5.50;99.90;;;;;;5115750;28;20451;-59
2024/02/24 03:09:47;;;;;;;0.90;0.20;;;5.60;1.00;;;;;;5116559;28;20466;-59
2024/02/24 03:12:14;;;;;;;0.40;0.20;;;5.60;99.90;;;;;;5116207;28;20422;-59
2024/02/24 03:14:43;;;;;;;0.50;0.20;;;5.70;68.80;;;;;;5115536;28;20504;-59
2024/02/24 03:17:10;;;;;;;0.50;0.20;;;5.80;1.00;;;;;;5115536;28;20424;-59
2024/02/24 03:19:39;;;;;;;0.40;0.17;;;5.80;99.90;;;;;;5113022;28;20431;-59
2024/02/24 03:22:06;;;;;;;0.40;0.20;;;5.90;1.00;;;;;;5119412;28;20504;-59
2024/02/24 03:24:33;;;;;;;0.80;0.30;;;5.80;1.00;;;;;;5119821;28;20416;-59
2024/02/24 03:27:00;;;;;;;0.50;0.20;;;5.70;2.10;;;;;;5119590;28;20446;-59
2024/02/24 03:29:27;;;;;;;0.38;0.20;;;5.60;99.90;;;;;;5119739;28;20480;-59
2024/02/24 03:31:55;;;;;;;1.17;0.20;;;5.50;99.90;;;;;;5119094;28;20420;-59
2024/02/24 03:34:22;;;;;;;0.40;0.20;;;5.50;1.00;;;;;;5118714;28;20451;-59
2024/02/24 03:36:49;;;;;;;1.30;0.20;;;5.50;1.00;;;;;;5118871;28;20500;-59
2024/02/24 03:39:18;;;;;;;0.50;0.10;;;5.50;1.00;;;;;;5118671;27;20462;-59
2024/02/24 03:41:45;;;;;;;0.40;0.20;;;5.40;1.00;;;;;;5119031;28;20436;-60
2024/02/24 03:44:12;;;;;;;0.50;0.20;;;5.40;1.00;;;;;;5121719;27;20516;-58
2024/02/24 03:46:39;;;;;;;0.40;0.15;;;5.50;1.00;;;;;;5115390;28;20741;-59
2024/02/24 03:49:07;;;;;;;0.30;0.20;;;5.60;1.00;;;;;;5117939;28;20549;-59
2024/02/24 03:51:34;;;;;;;0.30;0.10;;;5.60;99.90;;;;;;5118111;28;20491;-60
2024/02/24 03:54:01;;;;;;;0.30;0.20;;;5.40;1.00;;;;;;5119425;28;20514;-60
2024/02/24 03:56:28;;;;;;;0.30;0.10;;;5.20;1.00;;;;;;5119204;28;20809;-61
2024/02/24 03:58:55;;;;;;;0.40;0.20;;;5.10;1.00;;;;;;5118801;28;20881;-58
2024/02/24 04:01:22;;;;;;;0.45;0.10;;;5.10;1.00;;;;;;5119502;28;20518;-60
2024/02/24 04:03:48;;;;;;;0.40;0.20;;;5.30;1.00;;;;;;5118895;28;20448;-60
2024/02/24 04:06:18;;;;;;;0.40;0.20;;;5.30;1.00;;;;;;5120967;27;20511;-60
2024/02/24 04:08:45;;;;;;;0.50;0.20;;;5.40;1.00;;;;;;5118088;28;20447;-60
2024/02/24 04:11:12;;;;;;;0.40;0.20;;;5.40;1.00;;;;;;5118871;28;20463;-60
2024/02/24 04:13:39;;;;;;;0.40;0.20;;;5.30;99.90;;;;;;5113214;28;20424;-60
2024/02/24 04:16:06;;;;;;;0.50;0.20;;;5.30;1.00;;;;;;5118714;28;20774;-60
2024/02/24 04:18:33;;;;;;;0.43;0.20;;;5.30;1.00;;;;;;5119219;28;20806;-59
2024/02/24 04:21:00;;;;;;;0.50;0.20;;;5.20;1.00;;;;;;5118152;28;20722;-60
2024/02/24 04:23:28;;;;;;;0.50;0.20;;;5.10;1.00;;;;;;5118226;28;20516;-59
2024/02/24 04:25:55;;;;;;;0.50;0.20;;;5.10;1.00;;;;;;5118597;28;20499;-60
2024/02/24 04:28:22;;;;;;;0.40;0.20;;;5.10;1.00;;;;;;5118636;28;20494;-59
2024/02/24 04:30:49;;;;;;;0.30;0.20;;;5.10;1.00;;;;;;5118480;28;20565;-60
2024/02/24 04:33:16;;;;;;;0.50;0.20;;;5.10;1.00;;;;;;5118364;28;20480;-61
2024/02/24 04:35:43;;;;;;;0.50;0.20;;;5.10;1.00;;;;;;5116530;28;20427;-60
2024/02/24 04:38:10;;;;;;;0.90;0.20;;;5.00;1.00;;;;;;5106107;27;20516;-61
2024/02/24 04:40:38;;;;;;;0.50;0.20;;;4.90;1.00;;;;;;5108154;28;20814;-60
2024/02/24 04:43:05;;;;;;;1.40;0.30;;;4.80;1.00;;;;;;5108578;28;20784;-60
2024/02/24 04:45:32;;;;;;;0.40;0.15;;;4.70;1.00;;;;;;5108615;28;20496;-61
2024/02/24 04:47:59;;;;;;;0.40;0.20;;;4.70;1.00;;;;;;5107876;28;20828;-59
2024/02/24 04:50:26;;;;;;;1.00;0.20;;;4.70;1.00;;;;;;5111794;28;20776;-59
2024/02/24 04:52:53;;;;;;;0.40;0.20;;;4.70;1.00;;;;;;5103088;28;21054;-60
2024/02/24 04:55:20;;;;;;;0.50;0.20;;;4.70;1.00;;;;;;5114814;28;20429;-59
2024/02/24 04:57:48;;;;;;;0.43;0.20;;;4.90;1.00;;;;;;5104809;28;20737;-60
2024/02/24 05:00:15;;;;;;;0.47;0.20;;;4.90;1.00;;;;;;5107365;28;20513;-59
2024/02/24 05:02:42;;;;;;;0.40;0.20;;;4.90;1.00;;;;;;5110591;28;20599;-63
2024/02/24 05:05:12;;;;;;;0.40;0.20;;;5.00;1.00;;;;;;5112019;28;20833;-61
2024/02/24 05:07:38;;;;;;;0.40;0.20;;;5.00;1.00;;;;;;5107122;28;20519;-60
2024/02/24 05:10:06;;;;;;;0.45;0.20;;;5.10;1.00;;;;;;5110682;28;20495;-59
2024/02/24 05:12:33;;;;;;;0.70;0.20;;;5.00;1.00;;;;;;5111147;28;20443;-59
2024/02/24 05:15:02;;;;;;;0.40;0.20;;;5.00;1.00;;;;;;5103863;28;20512;-59
2024/02/24 05:17:29;;;;;;;0.40;0.20;;;5.10;1.00;;;;;;5111468;28;20520;-59
2024/02/24 05:19:55;;;;;;;0.30;0.10;;;5.20;1.00;;;;;;5108971;28;20426;-59
2024/02/24 05:22:22;;;;;;;0.30;0.20;;;5.20;1.00;;;;;;5112264;28;20442;-59
2024/02/24 05:24:50;;;;;;;0.32;0.20;;;5.20;1.00;;;;;;5112495;28;20451;-59
2024/02/24 05:27:16;;;;;;;0.40;0.10;;;5.20;1.00;;;;;;5109853;28;20772;-59
2024/02/24 05:29:46;;;;;;;0.60;0.20;;;5.20;1.00;;;;;;5107146;28;20449;-59
2024/02/24 05:32:16;;;;;;;0.40;0.20;;;5.20;1.00;;;;;;5111317;28;20434;-59
2024/02/24 05:34:43;;;;;;;0.40;0.20;;;5.10;1.00;;;;;;5109537;28;20420;-59
2024/02/24 05:37:10;;;;;;;1.75;0.20;;;5.10;1.00;;;;;;5112218;28;20519;-59
2024/02/24 05:39:38;;;;;;;0.43;0.20;;;5.20;1.00;;;;;;5113168;28;20439;-59
2024/02/24 05:42:05;;;;;;;0.70;0.20;;;5.20;1.00;;;;;;5109935;28;20434;-59
2024/02/24 05:44:32;;;;;;;0.50;0.20;;;5.30;1.00;;;;;;5116695;28;20424;-59
2024/02/24 05:46:59;;;;;;;0.50;0.20;;;5.20;1.00;;;;;;5110053;27;20520;-59
2024/02/24 05:49:27;;;;;;;0.47;0.20;;;5.20;1.00;;;;;;5111883;28;20509;-58
2024/02/24 05:51:54;;;;;;;0.35;0.20;;;5.20;1.00;;;;;;5110422;28;20758;-59
2024/02/24 05:54:21;;;;;;;0.50;0.20;;;5.30;1.00;;;;;;5106274;28;20756;-59
2024/02/24 05:56:48;;;;;;;0.40;0.20;;;5.20;1.00;;;;;;5111367;28;20513;-59
2024/02/24 05:59:15;;;;;;;0.50;0.20;;;5.20;1.00;;;;;;5111073;28;20833;-59
2024/02/24 06:01:42;;;;;;;0.60;0.30;;;5.20;1.00;;;;;;5107079;28;20429;-58
2024/02/24 06:04:09;;;;;;;0.60;0.20;;;5.20;1.00;;;;;;5112022;28;20514;-60
2024/02/24 06:06:37;;;;;;;0.30;0.20;;;5.20;1.00;;;;;;5098989;28;20405;-59
2024/02/24 06:09:04;;;;;;;0.40;0.20;;;5.20;1.00;;;;;;5110585;28;20515;-61
2024/02/24 06:11:31;;;;;;;0.50;0.28;;;5.30;1.00;;;;;;5109839;28;20444;-61
2024/02/24 06:13:58;;;;;;;0.65;0.30;;;5.30;1.00;;;;;;5111137;28;20447;-61
2024/02/24 06:16:25;;;;;;;0.40;0.20;;;5.30;1.00;;;;;;5113530;28;20449;-61
2024/02/24 06:18:52;;;;;;;0.40;0.20;;;5.30;1.00;;;;;;5109319;28;20416;-62
2024/02/24 06:21:20;;;;;;;0.70;0.20;;;5.40;1.00;;;;;;5104660;28;20527;-62
2024/02/24 06:23:48;;;;;;;0.40;0.20;;;5.40;1.00;;;;;;5113802;27;20518;-62
2024/02/24 06:26:15;;;;;;;0.40;0.20;;;5.50;99.90;;;;;;5128505;27;20502;-61
2024/02/24 06:28:42;;;;;;;0.77;0.30;;;5.50;1.00;;;;;;5124258;27;20964;-61
2024/02/24 06:31:09;;;;;;;1.77;0.40;;;5.50;1.00;;;;;;5123677;27;20777;-62
2024/02/24 06:33:36;;;;;;;0.80;0.30;;;5.40;1.00;;;;;;5127644;27;20489;-62
2024/02/24 06:36:03;;;;;;;0.50;0.20;;;5.30;1.00;;;;;;5115169;28;20519;-62
2024/02/24 06:38:30;;;;;;;0.68;0.22;;;5.30;1.00;;;;;;5116457;28;20506;-62
2024/02/24 06:40:59;;;;;;;1.00;0.30;;;5.30;1.00;;;;;;5116616;28;20446;-61
2024/02/24 06:43:26;;;;;;;0.40;0.20;;;5.30;1.00;;;;;;5132646;27;20439;-61
2024/02/24 06:45:52;;;;;;;0.50;0.30;;;5.30;1.00;;;;;;5116640;28;20483;-61
2024/02/24 06:48:19;;;;;;;0.60;0.20;;;5.30;1.00;;;;;;5116963;28;20491;-62
2024/02/24 06:50:46;;;;;;;0.40;0.20;;;5.40;1.00;;;;;;5117113;28;20468;-61
2024/02/24 06:53:13;;;;;;;0.65;0.20;;;5.40;1.00;;;;;;5108497;28;20515;-61
2024/02/24 06:55:40;;;;;;;0.40;0.20;;;5.40;1.00;;;;;;5127182;27;20428;-61
2024/02/24 06:58:08;;;;;;;0.60;0.20;;;5.40;1.00;;;;;;5109408;28;20521;-61
2024/02/24 07:00:36;;;;;;;0.50;0.20;;;5.40;1.00;;;;;;5113434;28;20892;-60
2024/02/24 07:03:03;;;;;;;0.30;0.20;;;5.40;1.00;;;;;;5117850;28;20471;-60
2024/02/24 07:05:31;;;;;;;2.20;1.50;;;5.50;1.00;;;;;;5121619;28;20826;-60
2024/02/24 07:07:58;;;;;;;0.77;0.30;;;5.50;1.00;;;;;;5113725;28;20464;-61
2024/02/24 07:10:25;;;;;;;0.80;0.23;;;5.50;1.00;;;;;;5129051;28;20505;-61
2024/02/24 07:12:52;;;;;;;0.60;0.20;;;5.50;1.00;;;;;;5137237;28;20494;-61
2024/02/24 07:15:20;;;;;;;0.40;0.27;;;5.60;1.00;;;;;;5127340;28;20412;-61
2024/02/24 07:17:47;;;;;;;0.45;0.20;;;5.50;1.00;;;;;;5116413;28;20675;-61
2024/02/24 07:20:14;;;;;;;0.50;0.20;;;5.60;1.00;;;;;;5108036;28;20489;-61
2024/02/24 07:22:42;;;;;;;0.50;0.20;;;5.50;1.00;;;;;;5116063;28;20521;-61
2024/02/24 07:25:09;;;;;;;0.77;0.20;;;5.40;1.00;;;;;;5123142;28;20706;-61
2024/02/24 07:27:36;;;;;;;0.40;0.20;;;5.40;1.00;;;;;;5116428;28;20416;-61
2024/02/24 07:30:04;;;;;;;0.43;0.20;;;5.30;1.00;;;;;;5116370;28;20535;-61
2024/02/24 07:32:33;;;;;;;0.50;0.20;;;5.30;1.00;;;;;;5116539;28;20420;-61
2024/02/24 07:35:01;;;;;;;0.40;0.20;;;5.30;1.00;;;;;;5116588;28;20481;-61
2024/02/24 07:37:28;;;;;;;0.50;0.20;;;5.30;1.00;;;;;;5105636;28;20510;-61
2024/02/24 07:39:54;;;;;;;0.60;0.20;;;5.40;1.00;;;;;;5130557;28;20445;-61
2024/02/24 07:42:21;;;;;;;0.40;0.20;;;5.50;1.00;;;;;;5133519;28;20515;-61
2024/02/24 07:44:48;;;;;;;0.40;0.20;;;5.80;1.00;;;;;;5108403;28;20503;-61
2024/02/24 07:47:17;;;;;;;0.45;0.20;;;5.80;1.00;;;;;;5116114;28;20511;-61
2024/02/24 07:49:45;;;;;;;0.40;0.20;;;5.80;1.00;;;;;;5114972;28;20818;-61
2024/02/24 07:52:12;;;;;;;0.30;0.10;;;5.90;1.00;;;;;;5116588;28;20476;-61
2024/02/24 07:54:41;;;;;;;0.40;0.17;;;6.10;1.00;;;;;;5116081;28;20447;-61
2024/02/24 07:57:08;;;;;;;0.50;0.20;;;6.00;1.00;;;;;;5125496;28;20430;-61
2024/02/24 07:59:35;;;;;;;1.25;0.20;;;5.90;99.90;;;;;;5131464;28;20505;-59
2024/02/24 08:02:02;;;;;;;1.00;0.20;;;5.80;22.50;;;;;;5116229;28;20505;-59
2024/02/24 08:04:29;;;;;;;0.40;0.10;;;5.90;99.90;;;;;;5115822;28;20431;-58
2024/02/24 08:06:57;;;;;;;0.70;0.30;;;5.90;1.00;;;;;;5117363;28;20420;-59
2024/02/24 08:09:24;;;;;;;0.30;0.10;;;5.90;1.00;;;;;;5113736;27;20521;-59
2024/02/24 08:11:52;;;;;;;0.30;0.10;;;6.00;22.10;;;;;;5138520;27;20556;-59
2024/02/24 08:14:18;;;;;;;0.70;0.20;;;6.10;30.80;;;;;;5108884;28;20736;-59
2024/02/24 08:16:45;;;;;;;0.40;0.10;;;6.30;99.90;;;;;;5124725;27;20521;-59
2024/02/24 08:19:12;;;;;;;0.30;0.10;;;6.50;99.90;;;;;;5137898;27;20426;-59
2024/02/24 08:21:39;;;;;;;0.50;0.10;;;6.40;99.90;;;;;;5120660;27;20506;-60
2024/02/24 08:24:09;;;;;;;0.40;0.10;;;6.20;98.50;;;;;;5120143;27;20436;-59
2024/02/24 08:26:38;;;;;;;0.70;0.30;;;6.10;55.80;;;;;;5131155;27;20420;-60
2024/02/24 08:29:06;;;;;;;0.30;0.10;;;6.00;1.00;;;;;;5103612;28;20485;-59
2024/02/24 08:31:34;;;;;;;0.30;0.10;;;6.00;99.90;;;;;;5110619;28;20427;-59
2024/02/24 08:34:01;;;;;;;0.40;0.20;;;5.90;1.00;;;;;;5120072;27;21198;-59
2024/02/24 08:36:28;;;;;;;0.82;0.20;;;5.90;1.00;;;;;;5108822;27;20501;-59
2024/02/24 08:38:56;;;;;;;0.40;0.10;;;6.00;1.00;;;;;;5108539;28;20696;-59
2024/02/24 08:41:25;;;;;;;0.40;0.20;;;6.00;99.90;;;;;;5107179;28;20420;-59
2024/02/24 08:43:52;;;;;;;0.30;0.10;;;6.20;1.00;;;;;;5110123;28;20444;-59
2024/02/24 08:46:19;;;;;;;0.40;0.10;;;6.30;1.00;;;;;;5095171;28;20904;-59
2024/02/24 08:48:46;;;;;;;1.20;0.20;;;6.30;1.00;;;;;;5117045;28;20518;-59
2024/02/24 08:51:13;;;;;;;1.20;0.90;;;6.30;1.00;;;;;;5117384;28;20436;-60
2024/02/24 08:53:41;;;;;;;0.68;0.30;;;6.50;1.00;;;;;;5117516;27;20514;-59
2024/02/24 08:56:08;;;;;;;0.40;0.10;;;6.60;1.00;;;;;;5118840;28;20430;-60
2024/02/24 08:58:37;;;;;;;0.30;0.10;;;6.70;1.00;;;;;;5107711;28;20530;-60
2024/02/24 09:01:04;;;;;;;0.40;0.10;;;6.70;1.00;;;;;;5107015;28;20443;-60
2024/02/24 09:03:31;;;;;;;0.90;0.10;;;7.20;1.00;;;;;;5108659;28;20432;-60
2024/02/24 09:05:58;;;;;;;0.30;0.10;;;7.60;99.90;;;;;;5118320;27;20589;-60
2024/02/24 09:08:25;;;;;;;0.50;0.10;;;7.70;1.00;;;;;;5109516;28;20925;-62
2024/02/24 09:10:52;;;;;;;0.30;0.10;;;7.70;1.00;;;;;;5121047;27;20412;-62
2024/02/24 09:13:19;;;;;;;0.30;0.10;;;7.50;1.00;;;;;;5107111;28;20529;-62
2024/02/24 09:15:47;;;;;;;0.40;0.20;;;7.50;1.00;;;;;;5123504;27;20511;-62
2024/02/24 09:18:14;;;;;;;0.40;0.10;;;7.40;1.00;;;;;;5109970;28;20535;-62
2024/02/24 09:20:41;;;;;;;0.30;0.10;;;7.30;1.00;;;;;;5102553;28;21883;-62
2024/02/24 09:23:08;;;;;;;0.40;0.10;;;7.30;1.00;;;;;;5106074;28;20827;-62
2024/02/24 09:25:35;;;;;;;0.40;0.10;;;7.20;1.00;;;;;;5107796;28;20437;-62
2024/02/24 09:28:02;;;;;;;0.40;0.10;;;7.20;1.00;;;;;;5120802;27;20802;-62
2024/02/24 09:30:29;;;;;;;0.40;0.10;;;7.40;1.00;;;;;;5120797;27;20544;-61
2024/02/24 09:32:57;;;;;;;0.40;0.10;;;7.50;1.00;;;;;;5116562;27;20507;-63
2024/02/24 09:35:24;;;;;;;0.30;0.10;;;7.50;1.00;;;;;;5117021;28;20428;-62
2024/02/24 09:37:51;;;;;;;0.40;0.20;;;7.50;1.00;;;;;;5117657;28;20514;-62
2024/02/24 09:40:18;;;;;;;0.30;0.10;;;7.60;1.00;;;;;;5118072;28;20503;-63
2024/02/24 09:42:45;;;;;;;0.30;0.10;;;7.90;1.00;;;;;;5116151;27;20449;-62
2024/02/24 09:45:13;;;;;;;0.40;0.20;;;8.00;99.90;;;;;;5119090;27;20513;-62
2024/02/24 09:47:42;;;;;;;0.50;0.10;;;8.10;99.90;;;;;;5116995;28;20420;-62
2024/02/24 09:50:11;;;;;;;0.38;0.10;;;8.10;99.90;;;;;;5116664;27;20432;-62
2024/02/24 09:52:39;;;;;;;0.30;0.10;;;8.30;99.90;;;;;;5121393;27;20472;-62
2024/02/24 09:55:07;;;;;;;1.20;0.20;;;8.50;99.90;;;;;;5118753;27;20419;-63
2024/02/24 09:57:36;;;;;;;0.30;0.10;;;8.50;99.90;;;;;;5109755;27;20846;-63
2024/02/24 10:00:06;;;;;;;0.40;0.10;;;8.40;99.90;;;;;;5137293;27;20418;-62
2024/02/24 10:02:34;;;;;;;0.30;0.10;;;8.30;99.90;;;;;;5126451;27;20439;-63
2024/02/24 10:05:01;;;;;;;0.30;0.10;;;8.40;99.90;;;;;;5108074;28;20428;-62
2024/02/24 10:07:33;;;;;;;0.30;0.10;;;8.50;99.90;;;;;;5115767;28;20523;-62
2024/02/24 10:10:00;;;;;;;0.30;0.10;;;8.50;99.90;;;;;;5116301;28;20416;-62
2024/02/24 10:12:27;;;;;;;0.30;0.10;;;8.60;99.90;;;;;;5110695;28;20507;-62
2024/02/24 10:14:55;;;;;;;0.30;0.10;;;8.70;93.10;;;;;;5117022;28;20499;-62
2024/02/24 10:17:23;;;;;;;0.30;0.10;;;8.80;66.50;;;;;;5098741;28;20429;-62
2024/02/24 10:19:51;;;;;;;0.30;0.10;;;8.90;50.70;;;;;;5102323;28;20533;-62
2024/02/24 10:22:17;;;;;;;0.38;0.10;;;9.00;19.80;;;;;;5108092;28;20465;-62
2024/02/24 10:24:46;;;;;;;1.20;0.10;;;9.10;14.90;;;;;;5116157;28;20456;-62
2024/02/24 10:27:16;;;;;;;0.30;0.10;;;9.10;1.00;;;;;;5135995;27;20426;-62
2024/02/24 10:29:43;;;;;;;0.30;0.10;;;9.00;1.00;;;;;;5130843;27;20514;-63
2024/02/24 10:32:11;;;;;;;0.30;0.10;;;9.00;1.00;;;;;;5116490;28;20539;-62
2024/02/24 10:34:38;;;;;;;0.30;0.10;;;9.10;1.00;;;;;;5116201;28;20415;-63
2024/02/24 10:37:05;;;;;;;3.50;0.20;;;9.30;1.00;;;;;;5114399;28;20503;-62
2024/02/24 10:39:34;;;;;;;0.60;0.10;;;9.40;1.00;;;;;;5112871;28;20841;-62
2024/02/24 10:42:06;;;;;;;0.30;0.10;;;9.60;1.00;;;;;;5116255;28;20482;-62
2024/02/24 10:44:34;;;;;;;0.30;0.10;;;9.70;1.00;;;;;;5108108;28;20501;-62
2024/02/24 10:47:01;;;;;;;0.30;0.10;;;9.80;1.00;;;;;;5115098;28;20420;-62
2024/02/24 10:49:29;;;;;;;0.40;0.10;;;9.70;1.00;;;;;;5112862;28;20706;-62
2024/02/24 10:51:56;;;;;;;0.30;0.10;;;9.80;1.00;;;;;;5113119;28;20420;-62
2024/02/24 10:54:29;;;;;;;0.30;0.10;;;9.80;1.00;;;;;;5116267;28;20565;-62
2024/02/24 10:56:58;;;;;;;0.40;0.10;;;9.80;1.00;;;;;;5113638;28;20438;-62
2024/02/24 10:59:31;;;;;;;0.35;0.10;;;9.80;1.00;;;;;;5111097;28;20465;-62
2024/02/24 11:02:01;;;;;;;0.40;0.10;;;9.70;1.00;;;;;;5111237;28;20507;-62
2024/02/24 11:04:29;;;;;;;0.30;0.10;;;9.60;1.00;;;;;;5095284;28;20677;-62
2024/02/24 11:06:57;;;;;;;0.60;0.10;;;9.80;1.00;;;;;;5116198;28;20507;-62
2024/02/24 11:09:30;;;;;;;0.30;0.10;;;9.80;1.00;;;;;;5108559;28;20436;-62
2024/02/24 11:12:04;;;;;;;0.60;0.10;;;9.70;1.00;;;;;;5116063;28;20426;-62
2024/02/24 11:14:34;;;;;;;0.32;0.10;;;9.70;1.00;;;;;;5115605;28;20416;-62
2024/02/24 11:17:03;;;;;;;0.32;0.10;;;9.90;1.00;;;;;;5126605;28;20580;-64
2024/02/24 11:19:47;;;;;;;0.40;0.10;;;10.10;1.00;;;;;;5109706;28;20434;-63
2024/02/24 11:22:20;;;;;;;0.35;0.20;;;10.20;1.00;;;;;;5115310;28;20426;-62
2024/02/24 11:25:00;;;;;;;0.30;0.10;;;10.30;1.00;;;;;;5115044;28;20428;-63
2024/02/24 11:27:29;;;;;;;0.80;0.10;;;10.50;1.00;;;;;;5115557;28;20817;-63
2024/02/24 11:29:57;;;;;;;0.30;0.10;;;10.60;1.00;;;;;;5115323;28;20434;-63
2024/02/24 11:32:24;;;;;;;0.30;0.10;;;10.70;1.00;;;;;;5116585;28;20435;-62
2024/02/24 11:34:53;;;;;;;0.30;0.10;;;10.70;1.00;;;;;;5114574;28;20422;-63
2024/02/24 11:37:19;;;;;;;0.30;0.10;;;10.50;1.00;;;;;;5105869;28;20798;-63
2024/02/24 11:39:47;;;;;;;0.30;0.10;;;10.30;1.00;;;;;;5110150;28;20416;-63
2024/02/24 11:42:14;;;;;;;0.30;0.10;;;10.10;1.00;;;;;;5115958;28;20452;-63
2024/02/24 11:44:44;;;;;;;0.30;0.10;;;10.10;1.00;;;;;;5109068;28;20813;-62
2024/02/24 11:47:17;;;;;;;0.40;0.10;;;10.20;1.00;;;;;;5121312;27;20441;-63
2024/02/24 11:49:45;;;;;;;0.30;0.10;;;10.00;1.00;;;;;;5132548;27;20419;-62
2024/02/24 11:52:12;;;;;;;0.50;0.10;;;9.80;1.00;;;;;;5135294;27;21083;-62
2024/02/24 11:54:40;;;;;;;0.30;0.10;;;9.80;1.00;;;;;;5139170;27;20414;-64
2024/02/24 11:57:07;;;;;;;0.50;0.10;;;9.70;1.00;;;;;;5121796;27;20428;-62
2024/02/24 11:59:34;;;;;;;0.50;0.10;;;9.80;1.00;;;;;;5119046;28;20538;-63
2024/02/24 12:02:01;;;;;;;0.30;0.13;;;9.80;1.00;;;;;;5119066;28;20873;-62
2024/02/24 12:04:29;;;;;;;0.30;0.10;;;9.80;1.00;;;;;;5122821;27;20772;-63
2024/02/24 12:06:56;;;;;;;0.80;0.20;;;9.80;1.00;;;;;;5114521;28;20818;-62
2024/02/24 12:09:23;;;;;;;1.60;0.20;;;9.90;1.00;;;;;;5118845;28;20447;-62
2024/02/24 12:11:50;;;;;;;5.00;2.60;;;10.00;1.00;;;;;;5107450;28;20775;-61
2024/02/24 12:14:18;;;;;;;0.70;0.30;;;10.10;1.00;;;;;;5119870;27;20444;-62
2024/02/24 12:16:45;;;;;;;0.38;0.20;;;10.50;1.00;;;;;;5127592;27;20431;-62
2024/02/24 12:19:13;;;;;;;0.30;0.10;;;10.70;1.00;;;;;;5110362;28;20507;-63
2024/02/24 12:21:41;;;;;;;0.30;0.10;;;11.20;1.00;;;;;;5117981;27;20542;-63
2024/02/24 12:24:09;;;;;;;0.40;0.10;;;11.60;1.00;;;;;;5137251;27;20462;-63
2024/02/24 12:26:36;;;;;;;0.60;0.20;;;11.80;1.00;;;;;;5138465;27;20756;-63
2024/02/24 12:29:05;;;;;;;0.30;0.10;;;11.40;1.00;;;;;;5118890;27;20508;-63
2024/02/24 12:31:32;;;;;;;0.60;0.20;;;11.20;1.00;;;;;;5119824;27;20436;-63
2024/02/24 12:33:59;;;;;;;0.40;0.20;;;11.20;1.00;;;;;;5126763;27;20490;-62
2024/02/24 12:36:27;;;;;;;0.47;0.20;;;11.40;1.00;;;;;;5132509;27;20864;-63
2024/02/24 12:38:56;;;;;;;0.50;0.25;;;11.40;1.00;;;;;;5137388;27;20425;-62
2024/02/24 12:41:23;;;;;;;0.50;0.20;;;11.30;1.00;;;;;;5128194;27;20526;-63
2024/02/24 12:43:49;;;;;;;0.50;0.20;;;11.30;1.00;;;;;;5130322;27;21047;-63
2024/02/24 12:46:19;;;;;;;0.40;0.10;;;10.90;1.00;;;;;;5123478;27;20422;-62
2024/02/24 12:48:46;;;;;;;0.50;0.30;;;10.70;1.00;;;;;;5107516;28;20524;-63
2024/02/24 12:51:13;;;;;;;13.23;7.97;;;10.80;1.00;;;;;;5119757;27;20467;-62
2024/02/24 12:53:41;;;;;;;0.50;0.30;;;10.80;1.00;;;;;;5109750;27;20429;-62
2024/02/24 12:56:09;;;;;;;0.50;0.20;;;10.80;1.00;;;;;;5125246;27;20590;-62
2024/02/24 12:58:38;;;;;;;1.50;0.20;;;10.80;1.00;;;;;;5117121;27;20514;-62
2024/02/24 13:01:07;;;;;;;0.50;0.20;;;10.70;1.00;;;;;;5117953;27;20429;-63
2024/02/24 13:03:33;;;;;;;0.40;0.20;;;10.70;1.00;;;;;;5117749;28;20420;-63